createdAt,value
2018-05-11T00:00:59.165Z,99.9
2018-05-11T00:02:06.370Z,99.9
2018-05-11T00:03:13.580Z,99.9
2018-05-11T00:04:20.514Z,99.9
2018-05-11T00:05:27.448Z,99.9
2018-05-11T00:06:34.103Z,99.9
2018-05-11T00:07:41.311Z,99.9
2018-05-11T00:08:48.517Z,99.9
2018-05-11T00:09:55.723Z,99.9
2018-05-11T00:11:02.931Z,99.9
2018-05-11T00:12:10.134Z,99.9
2018-05-11T00:13:17.065Z,99.9
2018-05-11T00:14:24.274Z,99.9
2018-05-11T00:15:31.252Z,99.9
2018-05-11T00:16:38.459Z,99.9
2018-05-11T00:17:45.665Z,99.9
2018-05-11T00:18:52.873Z,99.9
2018-05-11T00:20:00.085Z,99.9
2018-05-11T00:21:07.301Z,99.9
2018-05-11T00:22:14.504Z,99.9
2018-05-11T00:23:21.791Z,99.9
2018-05-11T00:24:29.254Z,99.9
2018-05-11T00:25:36.455Z,99.9
2018-05-11T00:26:43.658Z,99.9
2018-05-11T00:27:50.868Z,99.9
2018-05-11T00:28:58.070Z,99.9
2018-05-11T00:30:05.274Z,99.9
2018-05-11T00:31:12.476Z,99.9
2018-05-11T00:32:19.688Z,99.9
2018-05-11T00:33:26.905Z,99.9
2018-05-11T00:34:33.818Z,99.9
2018-05-11T00:35:40.747Z,99.9
2018-05-11T00:36:47.954Z,99.9
2018-05-11T00:37:55.157Z,99.9
2018-05-11T00:39:02.361Z,99.9
2018-05-11T00:40:09.564Z,99.9
2018-05-11T00:41:16.769Z,99.9
2018-05-11T00:42:23.975Z,99.9
2018-05-11T00:43:31.182Z,99.9
2018-05-11T00:44:38.391Z,99.9
2018-05-11T00:45:45.324Z,99.9
2018-05-11T00:46:52.250Z,99.9
2018-05-11T00:47:59.453Z,99.9
2018-05-11T00:49:06.658Z,99.9
2018-05-11T00:50:13.866Z,99.9
2018-05-11T00:51:21.074Z,99.9
2018-05-11T00:52:28.007Z,99.9
2018-05-11T00:53:35.213Z,99.9
2018-05-11T00:54:42.437Z,99.9
2018-05-11T00:55:49.715Z,99.9
2018-05-11T00:56:56.934Z,99.9
2018-05-11T00:58:04.142Z,99.9
2018-05-11T00:59:11.350Z,99.9
2018-05-11T01:00:18.557Z,99.9
2018-05-11T01:01:25.764Z,99.9
2018-05-11T01:02:32.969Z,99.9
2018-05-11T01:03:40.179Z,99.9
2018-05-11T01:04:47.111Z,99.9
2018-05-11T01:05:54.314Z,99.9
2018-05-11T01:07:01.523Z,99.9
2018-05-11T01:08:08.454Z,99.9
2018-05-11T01:09:15.665Z,99.9
2018-05-11T01:10:22.867Z,99.9
2018-05-11T01:11:30.077Z,99.9
2018-05-11T01:12:37.279Z,99.9
2018-05-11T01:13:44.488Z,99.9
2018-05-11T01:14:51.692Z,99.9
2018-05-11T01:15:58.893Z,99.9
2018-05-11T01:17:05.830Z,99.9
2018-05-11T01:18:13.038Z,99.9
2018-05-11T01:19:20.244Z,99.9
2018-05-11T01:20:27.474Z,99.9
2018-05-11T01:21:34.680Z,99.9
2018-05-11T01:22:41.908Z,99.9
2018-05-11T01:23:49.114Z,99.9
2018-05-11T01:24:56.340Z,99.9
2018-05-11T01:26:03.544Z,99.9
2018-05-11T01:27:10.747Z,99.9
2018-05-11T01:28:17.949Z,99.9
2018-05-11T01:29:25.157Z,99.9
2018-05-11T01:30:32.363Z,99.9
2018-05-11T01:31:39.569Z,99.9
2018-05-11T01:32:46.772Z,99.9
2018-05-11T01:33:53.985Z,99.9
2018-05-11T01:35:01.194Z,99.9
2018-05-11T01:36:08.128Z,99.9
2018-05-11T01:37:15.335Z,99.9
2018-05-11T01:38:22.263Z,99.9
2018-05-11T01:39:29.470Z,99.9
2018-05-11T01:40:36.672Z,99.9
2018-05-11T01:41:43.602Z,99.9
2018-05-11T01:42:50.808Z,99.9
2018-05-11T01:43:58.011Z,99.9
2018-05-11T01:45:05.218Z,99.9
2018-05-11T01:46:12.427Z,99.9
2018-05-11T01:47:19.630Z,99.9
2018-05-11T01:48:26.836Z,99.9
2018-05-11T01:49:34.047Z,99.9
2018-05-11T01:50:41.247Z,99.9
2018-05-11T01:51:48.449Z,99.9
2018-05-11T01:52:55.654Z,99.9
2018-05-11T01:54:02.865Z,99.9
2018-05-11T01:55:10.063Z,99.9
2018-05-11T01:56:17.271Z,99.9
2018-05-11T01:57:24.479Z,99.9
2018-05-11T01:58:31.677Z,99.9
2018-05-11T01:59:38.606Z,99.9
2018-05-11T02:00:45.813Z,99.9
2018-05-11T02:01:53.013Z,99.9
2018-05-11T02:03:00.220Z,99.9
2018-05-11T02:04:07.421Z,99.9
2018-05-11T02:05:14.628Z,99.9
2018-05-11T02:06:21.830Z,99.9
2018-05-11T02:07:29.034Z,99.9
2018-05-11T02:08:36.239Z,99.9
2018-05-11T02:09:43.443Z,99.9
2018-05-11T02:10:50.671Z,99.9
2018-05-11T02:11:57.884Z,99.9
2018-05-11T02:13:05.094Z,99.9
2018-05-11T02:14:12.300Z,99.9
2018-05-11T02:15:19.231Z,99.9
2018-05-11T02:16:26.436Z,99.9
2018-05-11T02:17:33.639Z,99.9
2018-05-11T02:18:40.901Z,99.9
2018-05-11T02:19:48.281Z,99.9
2018-05-11T02:20:55.491Z,99.9
2018-05-11T02:22:02.687Z,99.9
2018-05-11T02:23:09.617Z,99.9
2018-05-11T02:24:16.822Z,99.9
2018-05-11T02:25:24.028Z,99.9
2018-05-11T02:26:31.235Z,99.9
2018-05-11T02:27:38.442Z,99.9
2018-05-11T02:28:45.379Z,99.9
2018-05-11T02:29:52.588Z,99.9
2018-05-11T02:30:59.789Z,99.9
2018-05-11T02:32:06.988Z,99.9
2018-05-11T02:33:14.199Z,99.9
2018-05-11T02:34:21.403Z,99.9
2018-05-11T02:35:28.335Z,99.9
2018-05-11T02:36:35.539Z,99.9
2018-05-11T02:37:42.746Z,99.9
2018-05-11T02:38:49.967Z,99.9
2018-05-11T02:39:57.170Z,99.9
2018-05-11T02:41:04.381Z,99.9
2018-05-11T02:42:11.594Z,99.9
2018-05-11T02:43:18.523Z,99.9
2018-05-11T02:44:25.741Z,99.9
2018-05-11T02:45:32.651Z,99.9
2018-05-11T02:46:39.300Z,99.9
2018-05-11T02:47:46.506Z,99.9
2018-05-11T02:48:53.713Z,99.9
2018-05-11T02:50:00.919Z,99.9
2018-05-11T02:51:08.161Z,99.9
2018-05-11T02:52:15.378Z,99.9
2018-05-11T02:53:22.584Z,99.9
2018-05-11T02:54:29.838Z,99.9
2018-05-11T02:55:37.048Z,99.9
2018-05-11T02:56:44.259Z,99.9
2018-05-11T02:57:51.476Z,99.9
2018-05-11T02:58:58.673Z,99.9
2018-05-11T03:00:05.876Z,99.9
2018-05-11T03:01:13.094Z,99.9
2018-05-11T03:02:20.298Z,99.9
2018-05-11T03:03:27.501Z,99.9
2018-05-11T03:04:34.703Z,99.9
2018-05-11T03:05:42.113Z,99.9
2018-05-11T03:06:49.317Z,99.9
2018-05-11T03:07:56.523Z,99.9
2018-05-11T03:09:03.725Z,99.9
2018-05-11T03:10:10.930Z,99.9
2018-05-11T03:11:18.135Z,99.9
2018-05-11T03:12:25.340Z,99.9
2018-05-11T03:13:32.268Z,99.9
2018-05-11T03:14:39.474Z,99.9
2018-05-11T03:15:46.680Z,99.9
2018-05-11T03:16:53.888Z,99.9
2018-05-11T03:18:01.098Z,99.9
2018-05-11T03:19:08.318Z,99.9
2018-05-11T03:20:15.584Z,99.9
2018-05-11T03:21:22.786Z,99.9
2018-05-11T03:22:29.988Z,99.9
2018-05-11T03:23:36.923Z,99.9
2018-05-11T03:24:44.151Z,99.9
2018-05-11T03:25:51.358Z,99.9
2018-05-11T03:26:58.629Z,99.9
2018-05-11T03:28:05.861Z,99.9
2018-05-11T03:29:13.070Z,99.9
2018-05-11T03:30:20.274Z,99.9
2018-05-11T03:31:27.693Z,99.9
2018-05-11T03:32:34.896Z,99.9
2018-05-11T03:33:42.102Z,99.9
2018-05-11T03:34:49.313Z,99.9
2018-05-11T03:35:56.515Z,99.9
2018-05-11T03:37:03.723Z,99.9
2018-05-11T03:38:10.932Z,99.9
2018-05-11T03:39:18.142Z,99.9
2018-05-11T03:40:25.345Z,99.9
2018-05-11T03:41:32.554Z,99.9
2018-05-11T03:42:39.763Z,99.9
2018-05-11T03:43:47.053Z,99.9
2018-05-11T03:44:54.254Z,99.9
2018-05-11T03:46:01.459Z,99.9
2018-05-11T03:47:08.661Z,99.9
2018-05-11T03:48:15.868Z,99.9
2018-05-11T03:49:23.073Z,99.9
2018-05-11T03:50:30.283Z,99.9
2018-05-11T03:51:37.487Z,99.9
2018-05-11T03:52:44.692Z,99.9
2018-05-11T03:53:51.899Z,99.9
2018-05-11T03:54:59.104Z,99.9
2018-05-11T03:56:06.048Z,99.9
2018-05-11T03:57:13.256Z,99.9
2018-05-11T03:58:20.187Z,99.9
2018-05-11T03:59:27.386Z,99.9
2018-05-11T04:00:34.599Z,99.9
2018-05-11T04:01:41.799Z,99.9
2018-05-11T04:02:49.012Z,99.9
2018-05-11T04:03:56.220Z,99.9
2018-05-11T04:05:02.875Z,99.9
2018-05-11T04:06:10.079Z,99.9
2018-05-11T04:07:17.284Z,99.9
2018-05-11T04:08:24.490Z,99.9
2018-05-11T04:09:31.693Z,99.9
2018-05-11T04:10:38.898Z,99.9
2018-05-11T04:11:46.100Z,99.9
2018-05-11T04:12:53.061Z,99.9
2018-05-11T04:14:00.271Z,99.9
2018-05-11T04:15:07.495Z,99.9
2018-05-11T04:16:14.420Z,99.9
2018-05-11T04:17:21.624Z,99.9
2018-05-11T04:18:28.827Z,99.9
2018-05-11T04:19:36.029Z,99.9
2018-05-11T04:20:43.320Z,99.9
2018-05-11T04:21:50.754Z,99.9
2018-05-11T04:22:57.688Z,99.9
2018-05-11T04:24:04.899Z,99.9
2018-05-11T04:25:12.113Z,99.9
2018-05-11T04:26:19.329Z,99.9
2018-05-11T04:27:26.263Z,99.9
2018-05-11T04:28:33.470Z,99.9
2018-05-11T04:29:40.674Z,99.9
2018-05-11T04:30:47.878Z,99.9
2018-05-11T04:31:55.085Z,99.9
2018-05-11T04:33:02.305Z,99.9
2018-05-11T04:34:09.504Z,99.9
2018-05-11T04:35:16.431Z,99.9
2018-05-11T04:36:23.638Z,99.9
2018-05-11T04:37:30.839Z,99.9
2018-05-11T04:38:38.042Z,99.9
2018-05-11T04:39:45.249Z,99.9
2018-05-11T04:40:52.456Z,99.9
2018-05-11T04:41:59.666Z,99.9
2018-05-11T04:43:06.870Z,99.9
2018-05-11T04:44:14.075Z,99.9
2018-05-11T04:45:21.308Z,99.9
2018-05-11T04:46:28.823Z,99.9
2018-05-11T04:47:36.030Z,99.9
2018-05-11T04:48:42.966Z,99.9
2018-05-11T04:49:50.174Z,99.9
2018-05-11T04:50:57.383Z,99.9
2018-05-11T04:52:04.599Z,99.9
2018-05-11T04:53:11.802Z,99.9
2018-05-11T04:54:19.019Z,99.9
2018-05-11T04:55:26.225Z,99.9
2018-05-11T04:56:33.431Z,99.9
2018-05-11T04:57:40.373Z,99.9
2018-05-11T04:58:47.583Z,99.9
2018-05-11T04:59:54.789Z,99.9
2018-05-11T05:01:01.996Z,99.9
2018-05-11T05:02:09.207Z,99.9
2018-05-11T05:03:16.411Z,99.9
2018-05-11T05:04:23.334Z,99.9
2018-05-11T05:05:30.540Z,99.9
2018-05-11T05:06:37.741Z,99.9
2018-05-11T05:07:44.943Z,99.9
2018-05-11T05:08:52.155Z,99.9
2018-05-11T05:09:59.353Z,99.9
2018-05-11T05:11:06.555Z,99.9
2018-05-11T05:12:13.763Z,99.9
2018-05-11T05:13:21.036Z,99.9
2018-05-11T05:14:28.246Z,99.9
2018-05-11T05:15:35.454Z,99.9
2018-05-11T05:16:42.381Z,99.9
2018-05-11T05:17:49.586Z,99.9
2018-05-11T05:18:56.792Z,99.9
2018-05-11T05:20:04.073Z,99.9
2018-05-11T05:21:11.279Z,99.9
2018-05-11T05:22:18.485Z,99.9
2018-05-11T05:23:25.780Z,99.9
2018-05-11T05:24:32.704Z,99.9
2018-05-11T05:25:39.913Z,99.9
2018-05-11T05:26:47.117Z,99.9
2018-05-11T05:27:54.321Z,99.9
2018-05-11T05:29:01.282Z,99.9
2018-05-11T05:30:07.945Z,99.9
2018-05-11T05:31:15.153Z,99.9
2018-05-11T05:32:22.359Z,99.9
2018-05-11T05:33:29.287Z,99.9
2018-05-11T05:34:36.502Z,99.9
2018-05-11T05:35:43.711Z,99.9
2018-05-11T05:36:50.915Z,99.9
2018-05-11T05:37:58.137Z,99.9
2018-05-11T05:39:05.415Z,99.9
2018-05-11T05:40:12.810Z,99.9
2018-05-11T05:41:19.469Z,99.9
2018-05-11T05:42:26.668Z,99.9
2018-05-11T05:43:33.874Z,99.9
2018-05-11T05:44:41.132Z,99.9
2018-05-11T05:45:48.358Z,99.9
2018-05-11T05:46:55.599Z,99.9
2018-05-11T05:48:02.817Z,99.9
2018-05-11T05:49:10.024Z,99.9
2018-05-11T05:50:17.239Z,99.9
2018-05-11T05:51:24.179Z,99.9
2018-05-11T05:52:31.386Z,99.9
2018-05-11T05:53:38.650Z,99.9
2018-05-11T05:54:45.848Z,99.9
2018-05-11T05:55:53.060Z,99.9
2018-05-11T05:57:00.006Z,99.9
2018-05-11T05:58:07.209Z,99.9
2018-05-11T05:59:14.143Z,99.9
2018-05-11T06:00:21.344Z,99.9
2018-05-11T06:01:28.555Z,99.9
2018-05-11T06:02:35.806Z,99.9
2018-05-11T06:03:43.082Z,99.9
2018-05-11T06:04:50.360Z,99.9
2018-05-11T06:05:57.562Z,99.9
2018-05-11T06:07:04.487Z,99.9
2018-05-11T06:08:11.702Z,99.9
2018-05-11T06:09:19.157Z,99.9
2018-05-11T06:10:26.371Z,99.9
2018-05-11T06:11:33.572Z,99.9
2018-05-11T06:12:40.502Z,99.9
2018-05-11T06:13:47.710Z,99.9
2018-05-11T06:14:54.920Z,99.9
2018-05-11T06:16:02.130Z,99.9
2018-05-11T06:17:08.791Z,99.9
2018-05-11T06:18:15.996Z,99.9
2018-05-11T06:19:23.201Z,99.9
2018-05-11T06:20:30.409Z,99.9
2018-05-11T06:21:37.640Z,99.9
2018-05-11T06:22:44.832Z,99.9
2018-05-11T06:23:52.038Z,99.9
2018-05-11T06:24:59.318Z,99.9
2018-05-11T06:27:28.385Z,99.9
2018-05-11T06:28:35.590Z,99.9
2018-05-11T06:29:42.796Z,99.9
2018-05-11T06:30:50.006Z,99.9
2018-05-11T06:31:57.206Z,99.9
2018-05-11T06:33:04.189Z,99.9
2018-05-11T06:34:11.403Z,99.9
2018-05-11T06:35:18.608Z,99.9
2018-05-11T06:36:25.813Z,99.9
2018-05-11T06:37:33.019Z,99.9
2018-05-11T06:38:40.225Z,99.9
2018-05-11T06:39:46.880Z,99.9
2018-05-11T06:40:54.091Z,99.9
2018-05-11T06:42:01.295Z,99.9
2018-05-11T06:43:08.513Z,99.9
2018-05-11T06:44:15.722Z,99.9
2018-05-11T06:45:22.926Z,99.9
2018-05-11T06:46:30.137Z,99.9
2018-05-11T06:47:37.345Z,99.9
2018-05-11T06:48:44.553Z,99.9
2018-05-11T06:49:51.760Z,99.9
2018-05-11T06:50:58.708Z,99.9
2018-05-11T06:52:05.917Z,99.9
2018-05-11T06:53:13.133Z,99.9
2018-05-11T06:54:20.341Z,99.9
2018-05-11T06:55:27.326Z,99.9
2018-05-11T06:56:34.523Z,99.9
2018-05-11T06:57:41.737Z,99.9
2018-05-11T06:58:48.958Z,99.9
2018-05-11T06:59:56.169Z,99.9
2018-05-11T07:01:03.391Z,99.9
2018-05-11T07:02:10.601Z,99.9
2018-05-11T07:03:17.802Z,99.9
2018-05-11T07:04:25.022Z,99.9
2018-05-11T07:05:32.022Z,99.9
2018-05-11T07:06:39.224Z,99.9
2018-05-11T07:07:46.531Z,99.9
2018-05-11T07:08:54.312Z,99.9
2018-05-11T07:10:01.483Z,99.9
2018-05-11T07:11:08.678Z,99.9
2018-05-11T07:12:15.604Z,99.9
2018-05-11T07:13:22.539Z,99.9
2018-05-11T07:14:29.748Z,99.9
2018-05-11T07:15:36.954Z,99.9
2018-05-11T07:16:44.168Z,99.9
2018-05-11T07:17:51.372Z,99.9
2018-05-11T07:18:58.314Z,99.9
2018-05-11T07:20:05.519Z,99.9
2018-05-11T07:21:12.728Z,99.9
2018-05-11T07:22:19.665Z,99.9
2018-05-11T07:23:26.877Z,99.9
2018-05-11T07:24:33.827Z,99.9
2018-05-11T07:25:41.070Z,99.9
2018-05-11T07:26:48.312Z,99.9
2018-05-11T07:27:55.525Z,99.9
2018-05-11T07:29:02.751Z,99.9
2018-05-11T07:30:09.956Z,99.9
2018-05-11T07:31:17.169Z,99.9
2018-05-11T07:32:24.102Z,99.9
2018-05-11T07:33:31.315Z,99.9
2018-05-11T07:34:37.978Z,99.9
2018-05-11T07:35:44.908Z,99.9
2018-05-11T07:36:52.120Z,99.9
2018-05-11T07:37:59.335Z,99.4
2018-05-11T07:39:06.555Z,99.9
2018-05-11T07:40:13.511Z,97
2018-05-11T07:41:20.716Z,99.9
2018-05-11T07:42:27.927Z,99.7
2018-05-11T07:43:35.139Z,97.7
2018-05-11T07:44:42.075Z,99.3
2018-05-11T07:45:49.079Z,98.1
2018-05-11T07:46:56.009Z,99.9
2018-05-11T07:48:03.221Z,99.9
2018-05-11T07:49:10.431Z,99.9
2018-05-11T07:50:17.640Z,96.9
2018-05-11T07:51:24.851Z,95.4
2018-05-11T07:52:32.181Z,99.9
2018-05-11T07:53:39.119Z,99.9
2018-05-11T07:54:46.333Z,99.2
2018-05-11T07:55:53.541Z,97.1
2018-05-11T07:57:00.756Z,93.9
2018-05-11T07:58:07.972Z,89.8
2018-05-11T07:59:15.183Z,97.7
2018-05-11T08:00:22.400Z,94.4
2018-05-11T08:01:29.602Z,95.6
2018-05-11T08:02:36.817Z,92.4
2018-05-11T08:03:44.027Z,89.5
2018-05-11T08:04:51.244Z,90.9
2018-05-11T08:05:58.445Z,96.1
2018-05-11T08:07:05.727Z,92.9
2018-05-11T08:08:12.957Z,94.3
2018-05-11T08:09:20.168Z,93.9
2018-05-11T08:10:27.379Z,99.1
2018-05-11T08:11:34.598Z,99.9
2018-05-11T08:12:41.817Z,92.5
2018-05-11T08:13:48.761Z,96.3
2018-05-11T08:14:55.711Z,99.9
2018-05-11T08:16:02.651Z,91.1
2018-05-11T08:17:09.855Z,90.9
2018-05-11T08:18:16.789Z,94.4
2018-05-11T08:19:23.733Z,97.4
2018-05-11T08:20:30.671Z,95.6
2018-05-11T08:21:37.905Z,83.5
2018-05-11T08:22:44.846Z,89.1
2018-05-11T08:23:52.063Z,93.2
2018-05-11T08:24:58.725Z,89.6
2018-05-11T08:26:05.933Z,90.8
2018-05-11T08:27:13.145Z,93.5
2018-05-11T08:28:20.113Z,95.2
2018-05-11T08:29:27.049Z,95.2
2018-05-11T08:30:34.266Z,89.1
2018-05-11T08:31:41.199Z,99.9
2018-05-11T08:32:48.415Z,83.5
2018-05-11T08:33:55.376Z,79.6
2018-05-11T08:35:02.411Z,86
2018-05-11T08:36:09.347Z,75.9
2018-05-11T08:37:16.560Z,77.3
2018-05-11T08:38:23.775Z,78.5
2018-05-11T08:39:30.704Z,84
2018-05-11T08:40:37.919Z,93.1
2018-05-11T08:41:44.856Z,90
2018-05-11T08:42:52.062Z,82.2
2018-05-11T08:43:59.276Z,77.3
2018-05-11T08:45:06.488Z,77.4
2018-05-11T08:46:13.459Z,82.7
2018-05-11T08:47:20.664Z,77.4
2018-05-11T08:48:27.874Z,90.6
2018-05-11T08:49:35.085Z,73.8
2018-05-11T08:50:42.291Z,74.4
2018-05-11T08:51:49.601Z,87.9
2018-05-11T08:52:56.985Z,87
2018-05-11T08:54:04.195Z,69
2018-05-11T08:55:11.415Z,70.7
2018-05-11T08:56:18.696Z,74.7
2018-05-11T08:57:25.898Z,66.7
2018-05-11T08:58:33.113Z,71.2
2018-05-11T08:59:40.042Z,64.8
2018-05-11T09:00:47.255Z,80.7
2018-05-11T09:01:54.473Z,75.7
2018-05-11T09:03:01.164Z,65.8
2018-05-11T09:04:08.506Z,72.1
2018-05-11T09:05:15.720Z,60.9
2018-05-11T09:06:22.939Z,60
2018-05-11T09:07:30.147Z,63.6
2018-05-11T09:08:37.411Z,51.8
2018-05-11T09:09:44.828Z,64.2
2018-05-11T09:10:52.049Z,57
2018-05-11T09:11:59.268Z,60.8
2018-05-11T09:13:06.480Z,52.1
2018-05-11T09:14:13.699Z,53.9
2018-05-11T09:15:21.133Z,65.9
2018-05-11T09:16:28.347Z,56.7
2018-05-11T09:17:35.560Z,63.6
2018-05-11T09:18:42.781Z,68.5
2018-05-11T09:19:49.998Z,59.8
2018-05-11T09:20:57.212Z,76.9
2018-05-11T09:22:04.466Z,59.5
2018-05-11T09:23:12.023Z,58.5
2018-05-11T09:24:18.970Z,64.7
2018-05-11T09:25:26.175Z,71.5
2018-05-11T09:26:33.323Z,68.5
2018-05-11T09:29:02.388Z,75.8
2018-05-11T09:30:09.804Z,57.8
2018-05-11T09:31:17.397Z,67.1
2018-05-11T09:32:24.613Z,68.4
2018-05-11T09:33:31.848Z,77.4
2018-05-11T09:34:39.071Z,64
2018-05-11T09:35:46.281Z,67.5
2018-05-11T09:36:53.496Z,64.9
2018-05-11T09:38:00.716Z,60
2018-05-11T09:39:07.934Z,44.6
2018-05-11T09:40:14.875Z,45.6
2018-05-11T09:41:22.097Z,48.9
2018-05-11T09:42:29.311Z,55.8
2018-05-11T09:43:36.527Z,48.8
2018-05-11T09:44:43.765Z,67.9
2018-05-11T09:45:50.969Z,64.9
2018-05-11T09:46:58.187Z,64.5
2018-05-11T09:48:05.417Z,61.1
2018-05-11T09:49:12.631Z,50.9
2018-05-11T09:50:19.886Z,50.2
2018-05-11T09:51:27.102Z,50.9
2018-05-11T09:52:34.323Z,46.4
2018-05-11T09:53:41.531Z,51.7
2018-05-11T09:54:48.472Z,62.7
2018-05-11T09:55:55.707Z,61.1
2018-05-11T09:57:02.922Z,54.9
2018-05-11T09:58:10.136Z,60.9
2018-05-11T09:59:17.346Z,50.9
2018-05-11T10:00:24.564Z,48.1
2018-05-11T10:01:31.776Z,55
2018-05-11T10:02:38.717Z,60.6
2018-05-11T10:03:45.930Z,57
2018-05-11T10:04:53.144Z,44.3
2018-05-11T10:06:00.358Z,49.4
2018-05-11T10:07:07.573Z,32.6
2018-05-11T10:08:14.789Z,40.5
2018-05-11T10:09:21.730Z,44
2018-05-11T10:10:28.663Z,36.4
2018-05-11T10:11:35.872Z,33
2018-05-11T10:12:42.814Z,33.5
2018-05-11T10:13:50.119Z,45.2
2018-05-11T10:14:57.197Z,46.7
2018-05-11T10:16:04.415Z,50.3
2018-05-11T10:17:11.632Z,32
2018-05-11T10:18:18.845Z,32.3
2018-05-11T10:19:26.057Z,29.8
2018-05-11T10:20:33.287Z,48.3
2018-05-11T10:21:40.504Z,37.1
2018-05-11T10:22:47.709Z,33.5
2018-05-11T10:23:54.652Z,52.9
2018-05-11T10:25:01.864Z,53.1
2018-05-11T10:26:09.081Z,42.2
2018-05-11T10:27:16.297Z,36.8
2018-05-11T10:28:23.508Z,42.9
2018-05-11T10:29:30.724Z,48.3
2018-05-11T10:30:37.943Z,44.5
2018-05-11T10:31:44.905Z,36.7
2018-05-11T10:32:52.121Z,38.3
2018-05-11T10:33:59.334Z,35.9
2018-05-11T10:35:06.548Z,33.2
2018-05-11T10:36:13.767Z,27.8
2018-05-11T10:37:20.704Z,27.3
2018-05-11T10:38:27.922Z,34
2018-05-11T10:39:34.862Z,40.3
2018-05-11T10:40:42.072Z,39.7
2018-05-11T10:41:49.286Z,31.4
2018-05-11T10:42:56.504Z,32.5
2018-05-11T10:44:03.719Z,32.7
2018-05-11T10:45:10.947Z,37.4
2018-05-11T10:46:18.166Z,40.9
2018-05-11T10:47:25.376Z,40.4
2018-05-11T10:48:32.388Z,34.9
2018-05-11T10:49:39.943Z,37.3
2018-05-11T10:50:47.168Z,46.7
2018-05-11T10:51:54.384Z,37.8
2018-05-11T10:53:01.328Z,41.1
2018-05-11T10:54:08.548Z,35.8
2018-05-11T10:55:15.764Z,32
2018-05-11T10:56:22.705Z,25.7
2018-05-11T10:57:29.923Z,26.3
2018-05-11T10:58:37.135Z,30.1
2018-05-11T10:59:44.360Z,33.4
2018-05-11T11:00:51.576Z,36
2018-05-11T11:01:58.795Z,42.5
2018-05-11T11:03:06.068Z,36.6
2018-05-11T11:04:13.270Z,33
2018-05-11T11:05:20.488Z,34.5
2018-05-11T11:06:27.703Z,32.9
2018-05-11T11:07:34.923Z,41.8
2018-05-11T11:08:42.137Z,40.2
2018-05-11T11:09:49.351Z,42.5
2018-05-11T11:10:56.568Z,35
2018-05-11T11:12:03.782Z,35.6
2018-05-11T11:13:11.004Z,35.8
2018-05-11T11:14:18.232Z,40.6
2018-05-11T11:15:25.444Z,35.2
2018-05-11T11:16:32.656Z,30
2018-05-11T11:17:39.879Z,35.7
2018-05-11T11:18:47.083Z,39.8
2018-05-11T11:19:54.315Z,31.4
2018-05-11T11:21:01.368Z,26.2
2018-05-11T11:22:08.295Z,33.8
2018-05-11T11:23:15.516Z,31.2
2018-05-11T11:24:22.738Z,36.2
2018-05-11T11:25:29.945Z,39.4
2018-05-11T11:26:36.882Z,47
2018-05-11T11:27:43.816Z,37.8
2018-05-11T11:28:51.027Z,42.2
2018-05-11T11:29:58.246Z,31
2018-05-11T11:31:05.452Z,34.7
2018-05-11T11:32:12.665Z,33.2
2018-05-11T11:33:19.878Z,31.6
2018-05-11T11:34:27.178Z,35.6
2018-05-11T11:35:34.889Z,32.7
2018-05-11T11:36:42.107Z,37.6
2018-05-11T11:37:49.473Z,33.9
2018-05-11T11:38:56.757Z,38.5
2018-05-11T11:40:03.962Z,39
2018-05-11T11:41:11.177Z,40.7
2018-05-11T11:42:18.429Z,36.7
2018-05-11T11:43:25.651Z,35.4
2018-05-11T11:44:32.590Z,30.9
2018-05-11T11:45:39.806Z,41.5
2018-05-11T11:46:47.020Z,39.5
2018-05-11T11:47:54.242Z,36.8
2018-05-11T11:49:01.472Z,32
2018-05-11T11:50:08.683Z,26.9
2018-05-11T11:51:15.901Z,29
2018-05-11T11:52:23.115Z,33.2
2018-05-11T11:53:30.057Z,42.9
2018-05-11T11:54:37.280Z,27.2
2018-05-11T11:55:44.499Z,39.2
2018-05-11T11:56:51.709Z,27.5
2018-05-11T11:57:58.921Z,30.8
2018-05-11T11:59:06.136Z,31.2
2018-05-11T12:00:13.347Z,32.7
2018-05-11T12:01:20.565Z,37.8
2018-05-11T12:02:27.781Z,29.5
2018-05-11T12:03:34.995Z,30.5
2018-05-11T12:04:42.214Z,30
2018-05-11T12:05:49.432Z,40.6
2018-05-11T12:06:56.643Z,39.9
2018-05-11T12:09:10.500Z,30.4
2018-05-11T12:10:17.714Z,23.7
2018-05-11T12:11:24.927Z,22.1
2018-05-11T12:12:32.145Z,24.5
2018-05-11T12:13:39.383Z,29.2
2018-05-11T12:14:46.596Z,33.2
2018-05-11T12:15:53.815Z,34.2
2018-05-11T12:17:01.033Z,30
2018-05-11T12:18:07.969Z,31
2018-05-11T12:19:15.185Z,34.1
2018-05-11T12:20:22.121Z,30.8
2018-05-11T12:21:29.358Z,29.5
2018-05-11T12:22:36.038Z,27.7
2018-05-11T12:23:43.264Z,32.3
2018-05-11T12:24:50.478Z,30.2
2018-05-11T12:25:57.693Z,32.3
2018-05-11T12:27:04.914Z,34.8
2018-05-11T12:28:12.138Z,34.6
2018-05-11T12:29:19.352Z,29.1
2018-05-11T12:30:26.591Z,31.4
2018-05-11T12:31:33.803Z,31.5
2018-05-11T12:32:41.017Z,29.2
2018-05-11T12:33:48.230Z,32.5
2018-05-11T12:34:55.530Z,36.3
2018-05-11T12:36:03.003Z,38.8
2018-05-11T12:37:10.222Z,39.4
2018-05-11T12:38:17.514Z,34.9
2018-05-11T12:39:24.729Z,29
2018-05-11T12:40:31.945Z,35.4
2018-05-11T12:41:39.164Z,27.2
2018-05-11T12:42:46.381Z,29.3
2018-05-11T12:43:53.601Z,33.4
2018-05-11T12:45:00.556Z,41.4
2018-05-11T12:46:07.521Z,25.7
2018-05-11T12:47:14.734Z,34.6
2018-05-11T12:48:21.949Z,30
2018-05-11T12:49:28.887Z,33.6
2018-05-11T12:50:35.832Z,28.6
2018-05-11T12:51:43.072Z,26.5
2018-05-11T12:52:50.309Z,28.5
2018-05-11T12:53:57.631Z,25
2018-05-11T12:55:04.563Z,27.1
2018-05-11T12:56:11.777Z,30.7
2018-05-11T12:57:19.001Z,32.5
2018-05-11T12:58:26.229Z,30.3
2018-05-11T12:59:33.458Z,26.2
2018-05-11T13:00:40.671Z,29.4
2018-05-11T13:01:47.884Z,31.8
2018-05-11T13:02:54.844Z,32.1
2018-05-11T13:04:02.106Z,32.1
2018-05-11T13:05:09.316Z,32.1
2018-05-11T13:06:16.540Z,37.4
2018-05-11T13:07:23.759Z,34.7
2018-05-11T13:08:30.975Z,32.6
2018-05-11T13:09:38.194Z,32.4
2018-05-11T13:10:45.422Z,29.7
2018-05-11T13:11:52.359Z,29.8
2018-05-11T13:12:59.650Z,37.2
2018-05-11T13:14:07.059Z,32.8
2018-05-11T13:15:14.275Z,28.1
2018-05-11T13:16:21.218Z,34.5
2018-05-11T13:17:28.433Z,31.2
2018-05-11T13:18:35.646Z,29
2018-05-11T13:19:42.592Z,24.5
2018-05-11T13:20:49.929Z,26.5
2018-05-11T13:21:57.662Z,29.8
2018-05-11T13:23:04.879Z,31.1
2018-05-11T13:24:12.097Z,33
2018-05-11T13:25:19.310Z,30.9
2018-05-11T13:26:26.527Z,25
2018-05-11T13:27:33.748Z,27.9
2018-05-11T13:28:40.965Z,27.3
2018-05-11T13:29:48.186Z,29.4
2018-05-11T13:30:55.405Z,29.2
2018-05-11T13:32:02.625Z,28.2
2018-05-11T13:33:09.558Z,29.3
2018-05-11T13:34:16.776Z,31.4
2018-05-11T13:35:23.995Z,34.7
2018-05-11T13:36:31.235Z,33.2
2018-05-11T13:37:38.770Z,29.3
2018-05-11T13:38:45.794Z,27.3
2018-05-11T13:39:53.017Z,32.5
2018-05-11T13:41:00.233Z,28.2
2018-05-11T13:42:07.523Z,27.4
2018-05-11T13:43:14.955Z,26.8
2018-05-11T13:44:21.917Z,26.3
2018-05-11T13:45:29.134Z,29.4
2018-05-11T13:46:36.431Z,23.2
2018-05-11T13:47:43.644Z,20
2018-05-11T13:48:50.862Z,26.4
2018-05-11T13:49:58.077Z,29.1
2018-05-11T13:51:05.296Z,22.4
2018-05-11T13:52:12.235Z,22.5
2018-05-11T13:53:19.174Z,24.4
2018-05-11T13:54:26.391Z,26.6
2018-05-11T13:55:33.610Z,23.5
2018-05-11T13:56:41.024Z,32.7
2018-05-11T13:57:48.244Z,39.6
2018-05-11T13:58:55.465Z,29.6
2018-05-11T14:00:02.682Z,28.7
2018-05-11T14:01:09.897Z,27.1
2018-05-11T14:02:17.114Z,25.6
2018-05-11T14:03:24.354Z,33.8
2018-05-11T14:04:31.352Z,34.8
2018-05-11T14:05:38.679Z,27.2
2018-05-11T14:06:45.896Z,29.7
2018-05-11T14:07:52.834Z,29.1
2018-05-11T14:09:00.049Z,30
2018-05-11T14:10:07.298Z,32.2
2018-05-11T14:11:14.307Z,31.8
2018-05-11T14:12:21.527Z,30
2018-05-11T14:13:28.737Z,40.1
2018-05-11T14:14:35.956Z,33.3
2018-05-11T14:15:43.173Z,30
2018-05-11T14:16:50.393Z,31.7
2018-05-11T14:17:57.613Z,31
2018-05-11T14:19:04.832Z,28.7
2018-05-11T14:20:11.770Z,30.5
2018-05-11T14:21:18.986Z,34
2018-05-11T14:22:25.926Z,40.3
2018-05-11T14:23:33.140Z,37.1
2018-05-11T14:24:40.112Z,43.1
2018-05-11T14:25:47.333Z,38.1
2018-05-11T14:26:54.547Z,43.7
2018-05-11T14:28:01.761Z,42.3
2018-05-11T14:29:08.975Z,41.8
2018-05-11T14:30:16.191Z,37.8
2018-05-11T14:31:23.128Z,41.4
2018-05-11T14:32:30.343Z,41.5
2018-05-11T14:33:37.557Z,40.3
2018-05-11T14:34:44.768Z,40.9
2018-05-11T14:35:51.981Z,44.7
2018-05-11T14:36:59.199Z,42.2
2018-05-11T14:38:06.424Z,40
2018-05-11T14:39:13.135Z,47.2
2018-05-11T14:40:20.097Z,44.5
2018-05-11T14:41:27.309Z,44.9
2018-05-11T14:42:34.253Z,44.9
2018-05-11T14:43:41.547Z,42.1
2018-05-11T14:44:48.838Z,44.7
2018-05-11T14:45:56.056Z,43.8
2018-05-11T14:47:02.989Z,41.2
2018-05-11T14:48:10.212Z,38.6
2018-05-11T14:49:17.427Z,40.9
2018-05-11T14:50:24.646Z,44
2018-05-11T14:51:31.862Z,55.2
2018-05-11T14:52:39.078Z,51.3
2018-05-11T14:53:46.299Z,47.2
2018-05-11T14:54:53.508Z,53.8
2018-05-11T14:56:00.724Z,53.4
2018-05-11T14:57:07.934Z,46.8
2018-05-11T14:58:14.876Z,45.4
2018-05-11T14:59:22.095Z,47.4
2018-05-11T15:00:29.311Z,48.5
2018-05-11T15:01:36.523Z,51.7